Renneritz Airport


Codes: EDOX/
Name: Renneritz Airport
City: Sandersdorf
Country: Germany
Elevation: 308 ft.

Photos at Renneritz Airport


   Photos courtesy of SpottingLog. You can add your own sightings and photos by signing up for a free trial today.



No photos found.

Weather at Renneritz Airport


Time (UTC)DescriptionTempratureWindCloud coverageVisibilityPressureHumidity
21-Feb-2024 03:00Light Rain8°C11 mph, SW0%10000m1021hPa75%
21-Feb-2024 06:00Scattered Clouds8°C13 mph, SW33%10000m1020hPa78%
21-Feb-2024 09:00Broken Clouds8°C13 mph, SW59%10000m1020hPa77%
21-Feb-2024 12:00Overcast Clouds10°C16 mph, SW93%10000m1017hPa68%
21-Feb-2024 15:00Overcast Clouds10°C11 mph, SW100%10000m1015hPa69%
21-Feb-2024 18:00Overcast Clouds8°C9 mph, S100%10000m1013hPa74%
21-Feb-2024 21:00Overcast Clouds9°C13 mph, S100%10000m1011hPa67%
22-Feb-2024 00:00Light Rain8°C18 mph, SW100%10000m1007hPa76%
22-Feb-2024 03:00Light Rain7°C16 mph, SW100%10000m1004hPa86%
22-Feb-2024 06:00Light Rain8°C16 mph, SW100%10000m1001hPa87%
22-Feb-2024 09:00Light Rain9°C16 mph, SW100%10000m1000hPa86%
22-Feb-2024 12:00Light Rain10°C13 mph, SW100%10000m997hPa81%
22-Feb-2024 15:00Overcast Clouds10°C16 mph, SW100%10000m993hPa82%
22-Feb-2024 18:00Overcast Clouds11°C16 mph, SW100%10000m991hPa80%
22-Feb-2024 21:00Light Rain11°C20 mph, SW100%10000m989hPa80%
23-Feb-2024 00:00Light Rain10°C22 mph, W100%10000m992hPa66%
23-Feb-2024 03:00Overcast Clouds6°C13 mph, SW96%10000m997hPa75%
23-Feb-2024 06:00Overcast Clouds5°C11 mph, SW88%10000m998hPa79%
23-Feb-2024 09:00Overcast Clouds7°C13 mph, SW100%10000m1001hPa69%
23-Feb-2024 12:00Overcast Clouds8°C11 mph, SW100%10000m1000hPa58%
23-Feb-2024 15:00Overcast Clouds8°C9 mph, SW100%10000m1000hPa60%
23-Feb-2024 18:00Overcast Clouds6°C7 mph, S100%10000m1001hPa71%
23-Feb-2024 21:00Overcast Clouds5°C7 mph, S100%10000m1000hPa77%
24-Feb-2024 00:00Overcast Clouds4°C7 mph, S100%10000m1000hPa79%
24-Feb-2024 03:00Overcast Clouds3°C7 mph, S100%10000m999hPa81%
24-Feb-2024 06:00Overcast Clouds3°C7 mph, S100%10000m1000hPa82%
24-Feb-2024 09:00Overcast Clouds6°C11 mph, SW100%10000m1001hPa70%
24-Feb-2024 12:00Broken Clouds8°C13 mph, SW83%10000m1003hPa54%
24-Feb-2024 15:00Broken Clouds9°C11 mph, SW69%10000m1004hPa54%
24-Feb-2024 18:00Broken Clouds6°C9 mph, SW53%10000m1006hPa69%
24-Feb-2024 21:00Clear Sky4°C7 mph, S5%10000m1008hPa78%
25-Feb-2024 00:00Scattered Clouds4°C7 mph, SE44%10000m1008hPa78%
25-Feb-2024 03:00Overcast Clouds4°C9 mph, SE100%10000m1007hPa73%
25-Feb-2024 06:00Broken Clouds3°C7 mph, SE65%10000m1007hPa77%
25-Feb-2024 09:00Clear Sky7°C9 mph, S5%10000m1007hPa64%
25-Feb-2024 12:00Clear Sky10°C11 mph, SW4%10000m1006hPa49%
25-Feb-2024 15:00Scattered Clouds10°C7 mph, SW47%10000m1006hPa56%
25-Feb-2024 18:00Scattered Clouds5°C7 mph, W30%10000m1007hPa75%
25-Feb-2024 21:00Few Clouds3°C4 mph, SW18%10000m1007hPa80%
26-Feb-2024 00:00Few Clouds3°C4 mph, SE19%10000m1007hPa79%